Time;durP1;ratioP1;P1;durP2;ratioP2;P2;SDS_P1;SDS_P2;PMS_P1;PMS_P2;Temp;Humidity;BMP_temperature;BMP_pressure;BME280_temperature;BME280_humidity;BME280_pressure;Samples;Min_cycle;Max_cycle;Signal;HPM_P1;HPM_P2
2022/12/11 00:01:26;;;;;;;25.30;11.32;;;;;;;0.42;78.05;98970.09;6095740;23;20183;-81
2022/12/11 00:03:51;;;;;;;15.07;9.60;;;;;;;0.44;78.12;98975.22;6095880;23;20172;-82
2022/12/11 00:06:21;;;;;;;17.92;9.50;;;;;;;0.46;78.05;98978.63;6097063;23;20183;-81
2022/12/11 00:08:50;;;;;;;20.55;10.98;;;;;;;0.46;78.21;98981.19;6097313;23;20187;-81
2022/12/11 00:11:16;;;;;;;17.58;10.00;;;;;;;0.45;77.96;98974.31;6097851;23;20232;-81
2022/12/11 00:13:44;;;;;;;17.95;10.85;;;;;;;0.43;78.10;98976.09;6096832;23;20211;-80
2022/12/11 00:16:10;;;;;;;18.05;9.98;;;;;;;0.43;78.03;98978.69;6096559;23;20184;-81
2022/12/11 00:18:35;;;;;;;14.35;8.82;;;;;;;0.40;77.99;98986.53;6094077;23;20180;-80
2022/12/11 00:21:07;;;;;;;19.38;9.80;;;;;;;0.38;77.75;98983.19;6094458;23;20327;-82
2022/12/11 00:23:36;;;;;;;16.58;9.40;;;;;;;0.34;77.96;98984.16;6094403;23;20214;-82
2022/12/11 00:26:16;;;;;;;18.95;9.90;;;;;;;0.31;77.94;98984.25;6125667;23;20237;-83
2022/12/11 00:29:13;;;;;;;16.23;7.82;;;;;;;0.31;77.97;98984.25;6089042;23;20204;-84
2022/12/11 00:31:58;;;;;;;13.00;9.68;;;;;;;0.33;78.04;98988.50;6115239;23;20281;-84
2022/12/11 00:34:59;;;;;;;15.45;9.55;;;;;;;0.34;78.04;98994.50;6114994;23;20200;-83
2022/12/11 00:37:34;;;;;;;21.38;12.52;;;;;;;0.38;77.90;98999.53;6072878;23;20182;-84
2022/12/11 00:40:41;;;;;;;26.58;13.18;;;;;;;0.41;77.77;98996.84;6067907;23;20180;-84
2022/12/11 00:43:22;;;;;;;18.10;11.82;;;;;;;0.44;77.54;99006.22;6091420;23;20495;-83
2022/12/11 00:46:04;;;;;;;16.55;10.50;;;;;;;0.46;77.54;98998.41;6024934;23;20215;-84
2022/12/11 00:49:00;;;;;;;20.15;9.55;;;;;;;0.43;77.48;98996.78;6094412;23;20298;-83
2022/12/11 00:52:39;;;;;;;15.98;9.70;;;;;;;0.42;77.53;98998.50;6101407;23;20248;-84
2022/12/11 00:59:42;;;;;;;19.65;10.80;;;;;;;0.43;77.40;99005.41;5987734;23;20200;-84
2022/12/11 01:03:19;;;;;;;29.85;15.68;;;;;;;0.42;77.26;99008.00;5946309;24;20197;-84
2022/12/11 01:05:54;;;;;;;23.52;12.05;;;;;;;0.38;77.50;99006.44;6016115;23;20218;-84
2022/12/11 01:12:19;;;;;;;17.00;12.75;;;;;;;0.31;77.49;99017.84;6106469;23;20211;-84
2022/12/11 01:14:54;;;;;;;23.55;11.70;;;;;;;0.29;77.55;99030.78;6071636;23;20212;-83
2022/12/11 01:17:45;;;;;;;17.13;10.73;;;;;;;0.31;77.61;99020.44;6121166;23;20184;-83
2022/12/11 01:20:19;;;;;;;22.83;13.50;;;;;;;0.32;77.64;99022.94;6124841;23;20179;-84
2022/12/11 01:23:16;;;;;;;18.40;12.13;;;;;;;0.31;77.56;99035.94;6055203;23;20238;-84
2022/12/11 01:26:33;;;;;;;16.55;10.82;;;;;;;0.30;77.71;99040.25;6104382;23;20210;-84
2022/12/11 01:29:45;;;;;;;16.40;11.10;;;;;;;0.31;77.73;99039.34;6089349;23;20189;-83
2022/12/11 01:32:12;;;;;;;22.67;13.82;;;;;;;0.35;77.48;99043.53;6100654;23;20197;-83
2022/12/11 01:34:42;;;;;;;25.30;16.70;;;;;;;0.41;77.68;99045.94;6100812;23;20439;-84
2022/12/11 01:37:11;;;;;;;24.05;14.80;;;;;;;0.43;77.77;99031.22;6101693;23;20423;-84
2022/12/11 01:39:39;;;;;;;20.20;12.45;;;;;;;0.43;77.53;99041.56;6128167;23;20235;-83
2022/12/11 01:42:19;;;;;;;16.70;10.27;;;;;;;0.41;77.69;99045.94;6091349;23;20187;-84
2022/12/11 01:45:30;;;;;;;17.92;11.55;;;;;;;0.38;77.56;99042.59;6079464;23;20207;-84
2022/12/11 01:49:17;;;;;;;21.02;11.30;;;;;;;0.33;77.69;99044.47;6126977;23;20185;-84
2022/12/11 01:52:17;;;;;;;22.55;11.73;;;;;;;0.31;78.12;99041.94;6101652;23;20341;-84
2022/12/11 01:54:43;;;;;;;18.60;12.18;;;;;;;0.34;77.80;99047.00;6127441;23;20210;-84
2022/12/11 01:57:10;;;;;;;19.87;11.63;;;;;;;0.38;77.62;99055.53;6126609;23;20187;-84
2022/12/11 01:59:39;;;;;;;23.67;12.43;;;;;;;0.41;77.57;99051.09;6126521;23;20199;-85
2022/12/11 02:02:10;;;;;;;22.38;12.70;;;;;;;0.42;77.31;99045.03;6100483;23;20183;-85
2022/12/11 02:04:38;;;;;;;16.35;11.93;;;;;;;0.42;77.37;99039.84;6126055;23;20210;-84
2022/12/11 02:07:04;;;;;;;25.90;12.05;;;;;;;0.40;77.37;99033.03;6126170;23;20176;-84
2022/12/11 02:09:34;;;;;;;17.98;12.57;;;;;;;0.37;77.21;99046.06;6128398;23;20179;-84
2022/12/11 02:12:10;;;;;;;22.38;12.50;;;;;;;0.34;77.53;99048.75;6101992;23;20206;-84
2022/12/11 02:14:48;;;;;;;20.88;11.57;;;;;;;0.32;77.41;99053.94;6128585;23;20202;-84
2022/12/11 02:17:24;;;;;;;19.88;12.35;;;;;;;0.32;77.59;99050.53;6126728;23;20661;-84
2022/12/11 02:19:59;;;;;;;20.23;12.05;;;;;;;0.32;77.62;99053.09;6125715;23;20177;-84
2022/12/11 02:23:08;;;;;;;22.02;12.35;;;;;;;0.29;77.49;99059.22;6128368;23;20190;-84
2022/12/11 02:25:36;;;;;;;24.20;14.52;;;;;;;0.28;77.61;99052.38;6125783;23;20215;-84
2022/12/11 02:28:39;;;;;;;28.98;13.93;;;;;;;0.29;77.69;99054.03;6127246;23;20182;-83
2022/12/11 02:31:13;;;;;;;28.45;14.93;;;;;;;0.31;77.66;99062.59;6036826;23;20206;-84
2022/12/11 02:33:52;;;;;;;27.45;14.57;;;;;;;0.31;77.65;99066.94;6115271;23;20199;-83
2022/12/11 02:36:21;;;;;;;24.52;14.55;;;;;;;0.31;77.58;99066.94;6129549;23;20207;-84
2022/12/11 02:38:50;;;;;;;24.80;14.45;;;;;;;0.32;77.66;99064.28;6129039;23;20184;-84
2022/12/11 02:41:19;;;;;;;21.50;14.23;;;;;;;0.34;77.23;99067.66;6101504;23;20193;-83
2022/12/11 02:43:47;;;;;;;23.90;12.63;;;;;;;0.33;77.40;99065.16;6127662;23;20278;-83
2022/12/11 02:46:19;;;;;;;21.10;13.63;;;;;;;0.31;77.51;99072.09;6130323;23;21048;-83
2022/12/11 02:49:21;;;;;;;22.70;13.07;;;;;;;0.29;77.60;99069.53;6110471;23;20176;-83
2022/12/11 02:52:11;;;;;;;22.08;10.98;;;;;;;0.29;77.37;99066.13;6131850;23;20290;-84
2022/12/11 02:54:39;;;;;;;16.05;10.95;;;;;;;0.27;77.45;99065.31;6132155;23;20195;-83
2022/12/11 02:57:13;;;;;;;16.63;9.63;;;;;;;0.24;77.35;99057.66;6132244;23;20183;-82
2022/12/11 02:59:41;;;;;;;16.05;10.07;;;;;;;0.20;77.36;99050.00;6129382;23;20205;-83
2022/12/11 03:02:08;;;;;;;13.45;8.45;;;;;;;0.19;77.45;99043.16;6128963;23;20180;-83
2022/12/11 03:04:35;;;;;;;16.27;11.07;;;;;;;0.20;77.29;99044.84;6128658;23;20403;-83
2022/12/11 03:07:10;;;;;;;13.52;9.05;;;;;;;0.19;77.49;99045.75;6131498;23;20391;-84
2022/12/11 03:09:41;;;;;;;15.25;8.07;;;;;;;0.16;77.48;99038.09;6108543;23;20225;-83
2022/12/11 03:12:09;;;;;;;17.15;9.23;;;;;;;0.10;77.37;99046.00;6134224;23;20201;-83
2022/12/11 03:14:36;;;;;;;13.32;7.20;;;;;;;0.04;77.25;99053.94;6130033;23;20221;-83
2022/12/11 03:17:04;;;;;;;13.48;7.90;;;;;;;-0.01;77.62;99055.81;6132485;23;20188;-84
2022/12/11 03:19:40;;;;;;;18.13;7.13;;;;;;;-0.05;77.71;99052.50;6103975;23;20206;-84
2022/12/11 03:22:28;;;;;;;13.00;8.75;;;;;;;-0.04;77.77;99050.75;6129897;23;20411;-84
2022/12/11 03:25:01;;;;;;;18.65;9.68;;;;;;;-0.05;77.59;99061.97;6131206;23;20193;-83
2022/12/11 03:27:35;;;;;;;11.52;8.35;;;;;;;-0.07;77.37;99062.00;6101351;23;20182;-84
2022/12/11 03:30:11;;;;;;;10.73;7.63;;;;;;;-0.07;77.45;99062.00;6125101;23;20182;-83
2022/12/11 03:33:01;;;;;;;9.85;7.05;;;;;;;-0.07;77.48;99059.44;6126649;23;20361;-84
2022/12/11 03:35:33;;;;;;;10.18;7.72;;;;;;;-0.11;77.05;99059.56;6125898;23;20200;-83
2022/12/11 03:38:07;;;;;;;13.85;7.68;;;;;;;-0.19;77.16;99057.19;6126877;23;20701;-83
2022/12/11 03:40:34;;;;;;;13.90;7.85;;;;;;;-0.20;77.51;99059.84;6127563;23;20211;-83
2022/12/11 03:43:02;;;;;;;19.80;10.55;;;;;;;-0.20;77.18;99052.09;6127332;23;20175;-83
2022/12/11 03:45:29;;;;;;;26.33;11.13;;;;;;;-0.23;77.44;99051.28;6126724;23;20270;-84
2022/12/11 03:47:58;;;;;;;23.73;10.35;;;;;;;-0.24;77.31;99046.19;6124405;23;20222;-84
2022/12/11 03:50:27;;;;;;;22.15;12.43;;;;;;;-0.25;77.53;99047.88;6126858;23;20180;-83
2022/12/11 03:52:53;;;;;;;27.92;13.27;;;;;;;-0.24;77.59;99056.50;6115060;23;20682;-83
2022/12/11 03:55:21;;;;;;;24.30;12.52;;;;;;;-0.22;77.67;99049.53;6126176;23;20194;-83
2022/12/11 03:57:47;;;;;;;23.42;11.38;;;;;;;-0.19;77.40;99058.94;6126445;23;20175;-84
2022/12/11 04:00:16;;;;;;;29.40;12.75;;;;;;;-0.17;77.33;99067.47;6125574;23;20176;-84
2022/12/11 04:02:42;;;;;;;27.55;14.10;;;;;;;-0.14;77.56;99078.56;6125666;23;20258;-83
2022/12/11 04:05:08;;;;;;;32.60;15.65;;;;;;;-0.11;77.32;99068.16;6123165;23;20195;-83
2022/12/11 04:07:34;;;;;;;29.38;11.75;;;;;;;-0.10;77.36;99075.00;6122335;23;20204;-84
2022/12/11 04:10:00;;;;;;;27.03;14.30;;;;;;;-0.07;77.24;99074.06;6118155;23;20484;-83
2022/12/11 04:12:26;;;;;;;21.73;12.67;;;;;;;-0.05;77.15;99074.88;6121690;23;20475;-83
2022/12/11 04:15:00;;;;;;;22.33;12.10;;;;;;;-0.04;77.36;99069.66;6125345;23;20453;-83
2022/12/11 04:25:39;;;;;;;32.92;13.85;;;;;;;0.04;77.03;99066.03;6122681;23;20221;-84
2022/12/11 04:28:04;;;;;;;29.90;13.83;;;;;;;-0.02;77.04;99069.63;6123835;23;20267;-83
2022/12/11 04:30:29;;;;;;;30.10;15.40;;;;;;;-0.06;77.32;99058.53;6123343;23;20177;-84
2022/12/11 04:32:55;;;;;;;30.77;14.00;;;;;;;-0.09;77.01;99063.78;6123799;23;20243;-83
2022/12/11 04:35:21;;;;;;;35.50;15.20;;;;;;;-0.09;77.49;99053.47;6125498;23;20413;-83
2022/12/11 04:37:47;;;;;;;33.03;16.02;;;;;;;-0.08;77.43;99062.03;6123446;23;20419;-83
2022/12/11 04:40:16;;;;;;;21.40;13.80;;;;;;;-0.08;77.48;99064.63;6122752;23;20599;-83
2022/12/11 04:42:42;;;;;;;28.40;15.55;;;;;;;-0.06;77.70;99062.84;6123672;23;20416;-83
2022/12/11 04:45:08;;;;;;;25.70;14.00;;;;;;;-0.02;77.44;99069.63;6125127;23;20195;-83
2022/12/11 04:47:36;;;;;;;25.33;13.68;;;;;;;-0.03;77.29;99062.75;6123320;23;20248;-84
2022/12/11 04:50:03;;;;;;;18.58;11.57;;;;;;;-0.04;77.48;99054.16;6124113;23;20574;-84
2022/12/11 04:52:29;;;;;;;22.30;13.80;;;;;;;-0.03;77.52;99062.75;6121947;23;20202;-84
2022/12/11 04:54:55;;;;;;;27.60;15.10;;;;;;;-0.04;77.42;99064.50;6121184;23;20250;-83
2022/12/11 04:57:20;;;;;;;25.80;15.23;;;;;;;-0.05;77.59;99059.41;6121736;23;20176;-83
2022/12/11 04:59:46;;;;;;;25.93;14.13;;;;;;;-0.07;77.55;99050.84;6120127;23;20417;-83
2022/12/11 05:02:12;;;;;;;29.40;13.95;;;;;;;-0.10;77.51;99056.09;6097768;23;20181;-84
2022/12/11 05:04:38;;;;;;;26.17;13.40;;;;;;;-0.18;77.48;99048.56;6128616;23;20191;-83
2022/12/11 05:07:03;;;;;;;36.50;14.90;;;;;;;-0.21;77.64;99050.41;6130633;23;20183;-83
2022/12/11 05:09:28;;;;;;;26.17;14.13;;;;;;;-0.23;77.92;99048.69;6128179;23;20183;-83
2022/12/11 05:11:54;;;;;;;24.63;13.50;;;;;;;-0.19;77.75;99051.19;6128153;23;20315;-84
2022/12/11 05:14:20;;;;;;;20.60;12.60;;;;;;;-0.16;77.92;99051.97;6129051;23;20205;-83
2022/12/11 05:16:45;;;;;;;19.55;12.27;;;;;;;-0.15;77.65;99050.22;6129186;23;20239;-84
2022/12/11 05:19:11;;;;;;;24.33;15.70;;;;;;;-0.13;77.74;99040.72;6127885;23;20183;-83
2022/12/11 05:21:36;;;;;;;21.17;12.60;;;;;;;-0.14;77.85;99049.31;6129441;23;20179;-83
2022/12/11 05:24:03;;;;;;;20.60;12.73;;;;;;;-0.12;77.79;99037.22;6129489;23;20750;-83
2022/12/11 05:26:28;;;;;;;24.25;14.82;;;;;;;-0.13;77.44;99038.13;6102775;23;20278;-83
2022/12/11 05:28:54;;;;;;;26.73;11.70;;;;;;;-0.17;77.49;99039.09;6126164;23;20207;-83
2022/12/11 05:31:23;;;;;;;24.87;13.20;;;;;;;-0.17;77.48;99039.94;6129372;23;20218;-84
2022/12/11 05:33:49;;;;;;;26.40;12.68;;;;;;;-0.17;77.63;99033.94;6128500;23;20398;-84
2022/12/11 05:36:17;;;;;;;23.55;13.38;;;;;;;-0.23;77.28;99029.78;6128410;23;20255;-83
2022/12/11 05:38:43;;;;;;;30.80;13.95;;;;;;;-0.27;77.53;99031.63;6127387;23;20197;-84
2022/12/11 05:41:12;;;;;;;25.17;15.07;;;;;;;-0.30;77.72;99036.88;6126830;23;20175;-83
2022/12/11 05:43:38;;;;;;;29.38;13.30;;;;;;;-0.30;77.66;99033.44;6129309;23;20225;-83
2022/12/11 05:46:08;;;;;;;22.53;13.40;;;;;;;-0.34;77.71;99032.69;6128777;23;20333;-84
2022/12/11 05:48:34;;;;;;;30.95;14.45;;;;;;;-0.33;77.72;99043.84;6128731;23;20202;-84
2022/12/11 05:51:01;;;;;;;27.75;13.75;;;;;;;-0.34;77.76;99037.00;6129410;23;20199;-84
2022/12/11 05:53:27;;;;;;;25.45;14.05;;;;;;;-0.37;77.76;99040.50;6129945;23;20190;-83
2022/12/11 05:55:53;;;;;;;22.45;12.15;;;;;;;-0.45;77.38;99037.31;6128801;23;20187;-83
2022/12/11 05:58:20;;;;;;;22.33;12.57;;;;;;;-0.55;77.82;99033.28;6125760;23;20244;-84
2022/12/11 06:00:46;;;;;;;19.50;11.90;;;;;;;-0.65;77.90;99027.53;6128408;23;20402;-84
2022/12/11 06:03:11;;;;;;;25.00;12.70;;;;;;;-0.71;78.34;99028.53;6128786;23;20259;-84
2022/12/11 06:05:38;;;;;;;26.27;12.40;;;;;;;-0.75;78.39;99032.09;6128081;23;20218;-85
2022/12/11 06:08:04;;;;;;;27.33;14.23;;;;;;;-0.79;78.11;99027.06;6127038;23;20194;-84
2022/12/11 06:10:29;;;;;;;27.80;13.70;;;;;;;-0.85;78.14;99027.22;6127987;23;20633;-84
2022/12/11 06:12:55;;;;;;;28.07;13.97;;;;;;;-0.90;78.22;99022.19;6127958;23;20210;-84
2022/12/11 06:15:21;;;;;;;31.03;14.43;;;;;;;-0.91;78.34;99025.66;6126681;23;20195;-83
2022/12/11 06:17:46;;;;;;;24.20;13.20;;;;;;;-0.93;78.51;99022.28;6125461;23;20266;-83
2022/12/11 06:20:12;;;;;;;26.20;14.10;;;;;;;-0.98;77.94;99027.53;6127752;23;20179;-84
2022/12/11 06:22:37;;;;;;;22.07;12.77;;;;;;;-1.03;78.34;99031.97;6127231;23;20175;-83
2022/12/11 06:25:03;;;;;;;25.63;12.47;;;;;;;-1.07;78.25;99024.38;6127575;23;20200;-83
2022/12/11 06:27:28;;;;;;;19.10;12.27;;;;;;;-1.12;78.41;99014.16;6127086;23;20180;-85
2022/12/11 06:29:54;;;;;;;25.90;12.53;;;;;;;-1.17;78.63;99022.00;6096198;23;20692;-85
2022/12/11 06:32:20;;;;;;;32.33;14.50;;;;;;;-1.24;78.28;99017.03;6118829;23;20598;-84
2022/12/11 06:34:46;;;;;;;22.10;13.82;;;;;;;-1.33;78.45;99023.28;6127023;23;20668;-84
2022/12/11 06:37:12;;;;;;;28.23;14.05;;;;;;;-1.34;78.83;99019.03;6127452;23;20179;-84
2022/12/11 06:39:37;;;;;;;30.87;14.97;;;;;;;-1.34;79.13;99024.19;6125635;23;20185;-84
2022/12/11 06:42:03;;;;;;;27.17;15.90;;;;;;;-1.32;78.68;99014.69;6125528;23;20172;-85
2022/12/11 06:44:28;;;;;;;34.83;18.33;;;;;;;-1.31;78.70;99013.78;6127478;23;20206;-84
2022/12/11 06:46:53;;;;;;;34.80;17.67;;;;;;;-1.31;78.81;99010.38;6128075;23;20184;-84
2022/12/11 06:49:19;;;;;;;20.33;13.50;;;;;;;-1.33;78.56;99007.81;6127176;23;20184;-83
2022/12/11 06:51:44;;;;;;;36.93;25.50;;;;;;;-1.42;78.31;99002.91;6127100;23;20209;-84
2022/12/11 06:54:09;;;;;;;48.30;31.73;;;;;;;-1.49;78.56;99007.34;6129393;23;20332;-84
2022/12/11 06:56:35;;;;;;;42.37;27.37;;;;;;;-1.51;78.82;99014.28;6127496;23;20228;-86
2022/12/11 06:59:00;;;;;;;32.20;15.60;;;;;;;-1.49;78.79;99011.66;6126495;23;20838;-86
2022/12/11 07:01:27;;;;;;;31.70;16.13;;;;;;;-1.46;78.96;99021.88;6126706;23;20199;-84
2022/12/11 07:03:58;;;;;;;58.15;18.95;;;;;;;-1.49;78.84;99030.53;6125637;23;20413;-84
2022/12/11 07:06:25;;;;;;;29.60;15.15;;;;;;;-1.46;78.83;99030.50;6127514;23;20174;-84
2022/12/11 07:08:51;;;;;;;36.38;16.10;;;;;;;-1.41;79.01;99048.38;6126052;23;20178;-86
2022/12/11 07:11:18;;;;;;;37.40;14.07;;;;;;;-1.38;78.97;99046.59;6122517;23;20214;-84
2022/12/11 07:13:44;;;;;;;39.40;16.20;;;;;;;-1.32;78.85;99055.91;6118332;23;20239;-86
2022/12/11 07:16:12;;;;;;;31.57;13.53;;;;;;;-1.29;79.08;99045.53;6116568;23;20215;-84
2022/12/11 07:18:45;;;;;;;34.42;17.75;;;;;;;-1.24;78.80;99041.09;6090695;23;20406;-85
2022/12/11 07:21:12;;;;;;;29.00;16.45;;;;;;;-1.22;78.63;99041.06;6118016;23;20175;-85
2022/12/11 07:23:37;;;;;;;30.38;13.98;;;;;;;-1.20;78.60;99049.59;6090781;23;20268;-84
2022/12/11 07:26:05;;;;;;;41.37;18.90;;;;;;;-1.22;78.71;99052.19;6115747;23;20645;-85
2022/12/11 07:28:30;;;;;;;34.90;17.35;;;;;;;-1.20;78.92;99053.00;6114937;23;20270;-84
2022/12/11 07:30:56;;;;;;;33.00;17.17;;;;;;;-1.18;78.96;99061.56;6114472;23;20609;-84
2022/12/11 07:33:21;;;;;;;26.13;14.80;;;;;;;-1.14;78.64;99064.91;6116156;23;20398;-84
2022/12/11 07:35:46;;;;;;;39.53;16.00;;;;;;;-1.10;78.62;99063.13;6113077;23;20762;-85
2022/12/11 07:38:12;;;;;;;28.00;13.40;;;;;;;-1.06;78.88;99067.28;6112006;23;20210;-86
2022/12/11 07:40:37;;;;;;;27.83;13.27;;;;;;;-1.04;78.60;99068.94;6109277;23;20201;-83
2022/12/11 07:43:03;;;;;;;21.60;11.87;;;;;;;-1.02;78.60;99074.06;6098064;23;20171;-84
2022/12/11 07:45:29;;;;;;;31.97;14.17;;;;;;;-1.00;78.53;99069.72;6118552;23;20213;-85
2022/12/11 07:47:54;;;;;;;27.70;15.60;;;;;;;-0.95;78.64;99075.59;6121509;23;20407;-85
2022/12/11 07:50:19;;;;;;;26.43;13.10;;;;;;;-0.90;78.56;99074.59;6120118;23;20494;-85
2022/12/11 07:52:45;;;;;;;29.43;14.10;;;;;;;-0.83;78.68;99079.63;6121158;23;20219;-84
2022/12/11 07:55:10;;;;;;;21.47;12.00;;;;;;;-0.81;78.05;99073.53;6118641;23;20225;-86
2022/12/11 07:57:36;;;;;;;27.07;15.77;;;;;;;-0.76;78.26;99074.22;6118883;23;20647;-84
2022/12/11 08:00:03;;;;;;;27.00;15.57;;;;;;;-0.72;78.00;99073.28;6119230;23;20174;-85
2022/12/11 08:02:38;;;;;;;22.63;12.20;;;;;;;-0.71;77.68;99072.38;6118492;23;20492;-85
2022/12/11 08:05:04;;;;;;;28.40;14.90;;;;;;;-0.69;77.90;99073.19;6120351;23;20191;-86
2022/12/11 08:07:29;;;;;;;31.58;16.67;;;;;;;-0.65;77.88;99073.09;6119390;23;20411;-84
2022/12/11 08:09:54;;;;;;;31.37;15.40;;;;;;;-0.64;78.09;99070.50;6120460;23;20290;-85
2022/12/11 08:12:20;;;;;;;28.77;17.57;;;;;;;-0.63;77.92;99074.75;6121073;23;20218;-86
2022/12/11 08:14:45;;;;;;;31.80;14.53;;;;;;;-0.61;77.84;99070.41;6120800;23;20204;-85
2022/12/11 08:17:10;;;;;;;22.63;12.70;;;;;;;-0.56;77.94;99072.88;6120397;23;20176;-85
2022/12/11 08:19:36;;;;;;;22.80;13.20;;;;;;;-0.54;78.02;99065.91;6120308;23;20191;-84
2022/12/11 08:22:02;;;;;;;25.40;12.80;;;;;;;-0.51;77.94;99071.88;6119273;23;20176;-85
2022/12/11 08:24:27;;;;;;;24.55;14.50;;;;;;;-0.47;77.69;99070.88;6120344;23;20215;-84
2022/12/11 08:26:53;;;;;;;21.73;13.83;;;;;;;-0.44;77.70;99072.53;6120764;23;20234;-86
2022/12/11 08:29:18;;;;;;;30.33;16.73;;;;;;;-0.40;77.75;99063.00;6122798;23;20362;-86
2022/12/11 08:31:47;;;;;;;31.40;16.90;;;;;;;-0.35;77.80;99072.28;6122233;23;20368;-84
2022/12/11 08:34:13;;;;;;;36.08;17.73;;;;;;;-0.29;77.31;99072.09;6120024;23;20215;-84
2022/12/11 08:36:38;;;;;;;26.20;11.68;;;;;;;-0.27;77.16;99070.34;6123763;23;20183;-85
2022/12/11 08:39:04;;;;;;;27.53;16.53;;;;;;;-0.24;77.29;99069.41;6123590;23;20493;-84
2022/12/11 08:41:33;;;;;;;41.93;17.87;;;;;;;-0.20;76.92;99067.56;6099868;23;20184;-85
2022/12/11 08:44:02;;;;;;;19.35;9.65;;;;;;;-0.17;76.73;99060.56;6122589;23;20175;-85
2022/12/11 08:46:37;;;;;;;26.38;13.57;;;;;;;-0.14;76.72;99057.06;6122702;23;20183;-84
2022/12/11 08:49:19;;;;;;;22.75;13.45;;;;;;;-0.09;76.72;99053.47;6101670;23;20233;-84
2022/12/11 08:52:16;;;;;;;33.03;14.82;;;;;;;-0.07;76.14;99051.69;6123664;23;20450;-85
2022/12/11 08:54:44;;;;;;;36.08;16.38;;;;;;;-0.04;76.43;99050.75;6122917;23;20680;-86
2022/12/11 08:57:41;;;;;;;28.05;13.95;;;;;;;0.01;76.18;99045.47;6096756;23;20331;-85
2022/12/11 09:00:11;;;;;;;33.63;15.30;;;;;;;0.05;75.72;99045.31;6096146;23;20199;-84
2022/12/11 09:02:57;;;;;;;26.25;14.73;;;;;;;0.11;76.14;99044.28;6096988;23;20196;-84
2022/12/11 09:06:07;;;;;;;20.58;13.50;;;;;;;0.14;75.85;99037.28;6112058;23;20722;-85
2022/12/11 09:11:58;;;;;;;25.77;14.82;;;;;;;0.14;75.11;99039.03;6118807;23;20746;-85
2022/12/11 09:14:38;;;;;;;28.83;13.52;;;;;;;0.08;74.77;99034.91;6091927;23;20694;-85
2022/12/11 09:17:04;;;;;;;18.35;11.02;;;;;;;0.07;74.92;99030.63;6066286;23;20182;-85
2022/12/11 09:19:31;;;;;;;24.90;12.18;;;;;;;0.08;74.69;99034.03;6115243;23;20557;-85
2022/12/11 09:22:00;;;;;;;18.85;11.10;;;;;;;0.10;74.43;99027.94;6090370;23;20168;-85
2022/12/11 09:24:26;;;;;;;23.58;12.85;;;;;;;0.09;74.49;99036.59;6116246;23;20190;-85
2022/12/11 09:27:20;;;;;;;22.98;11.73;;;;;;;0.09;74.28;99030.59;6090616;23;20335;-85
2022/12/11 09:29:49;;;;;;;17.55;9.40;;;;;;;0.11;74.00;99027.06;6103537;23;20525;-84
2022/12/11 09:32:16;;;;;;;29.50;13.35;;;;;;;0.09;73.97;99021.09;6117502;23;20587;-85
2022/12/11 09:34:52;;;;;;;25.42;13.68;;;;;;;0.13;74.10;99027.84;6117468;23;20681;-85
2022/12/11 09:37:19;;;;;;;23.98;13.77;;;;;;;0.14;73.84;99032.13;6120637;23;20179;-85
2022/12/11 09:39:47;;;;;;;34.58;13.90;;;;;;;0.16;73.73;99025.19;6095004;23;20188;-85
2022/12/11 09:42:31;;;;;;;17.13;10.90;;;;;;;0.17;73.93;99029.44;6091939;23;20172;-85
2022/12/11 09:45:00;;;;;;;27.17;14.68;;;;;;;0.18;73.50;99025.97;6118724;23;20417;-85
2022/12/11 09:47:37;;;;;;;26.77;13.25;;;;;;;0.18;73.53;99023.38;6093142;23;20198;-85
2022/12/11 09:50:09;;;;;;;24.13;12.15;;;;;;;0.21;73.57;99019.84;6119960;23;20254;-85
2022/12/11 09:52:57;;;;;;;24.90;12.13;;;;;;;0.27;73.66;99021.41;6094983;23;20295;-85
2022/12/11 09:55:24;;;;;;;21.20;12.25;;;;;;;0.33;73.32;99009.16;6120609;23;20274;-85
2022/12/11 09:58:08;;;;;;;16.67;12.05;;;;;;;0.35;73.27;98997.03;6118144;23;20174;-85
2022/12/11 10:00:48;;;;;;;29.27;12.68;;;;;;;0.38;72.67;98990.94;6117297;23;20469;-85
2022/12/11 10:03:45;;;;;;;25.63;12.80;;;;;;;0.39;72.25;98997.78;6114604;23;20077;-85
2022/12/11 10:06:37;;;;;;;17.25;10.98;;;;;;;0.41;72.53;98991.69;6113586;23;20195;-85
2022/12/11 10:09:12;;;;;;;23.17;10.63;;;;;;;0.47;72.14;98990.63;6116383;23;20625;-85
2022/12/11 10:12:08;;;;;;;28.35;12.77;;;;;;;0.50;71.87;98984.53;6114718;23;20750;-85
2022/12/11 10:15:10;;;;;;;21.75;10.68;;;;;;;0.52;71.82;98978.41;6087824;23;20204;-85
2022/12/11 10:17:37;;;;;;;19.23;10.60;;;;;;;0.53;71.30;98980.09;6107467;23;20226;-86
2022/12/11 10:20:27;;;;;;;19.38;10.35;;;;;;;0.59;71.14;98971.28;6096878;23;21000;-85
2022/12/11 10:22:55;;;;;;;15.20;9.00;;;;;;;0.65;71.22;98966.78;6111322;23;20183;-85
2022/12/11 10:25:35;;;;;;;29.40;11.80;;;;;;;0.73;70.53;98968.22;6113018;23;20696;-85
2022/12/11 10:28:11;;;;;;;23.25;11.55;;;;;;;0.65;70.73;98964.19;6115249;23;20178;-85
2022/12/11 10:30:39;;;;;;;26.42;11.82;;;;;;;0.61;70.27;98957.41;6116076;23;20171;-85
2022/12/11 10:33:21;;;;;;;19.17;9.75;;;;;;;0.64;70.48;98959.06;6116350;23;20220;-85
2022/12/11 10:35:54;;;;;;;20.67;11.32;;;;;;;0.66;70.92;98952.94;6115297;23;20199;-86
2022/12/11 10:38:31;;;;;;;23.33;10.65;;;;;;;0.71;70.49;98951.94;6116280;23;20726;-86
2022/12/11 10:41:08;;;;;;;17.52;9.73;;;;;;;0.72;70.49;98948.47;6116699;23;20493;-85
2022/12/11 10:43:45;;;;;;;22.55;12.88;;;;;;;0.71;70.33;98947.63;6090519;23;20449;-85
2022/12/11 10:46:18;;;;;;;22.15;10.95;;;;;;;0.75;70.23;98943.19;6119482;23;20218;-86
2022/12/11 10:48:54;;;;;;;16.20;10.77;;;;;;;0.73;70.04;98935.50;6118817;23;20184;-85
2022/12/11 10:51:23;;;;;;;19.70;11.50;;;;;;;0.65;70.11;98928.00;6119339;23;20194;-86
2022/12/11 10:53:50;;;;;;;23.02;13.20;;;;;;;0.69;70.46;98933.91;6113674;23;20181;-85
2022/12/11 10:56:24;;;;;;;22.63;11.88;;;;;;;0.69;70.02;98920.97;6116206;23;20196;-85
2022/12/11 10:58:51;;;;;;;30.48;13.25;;;;;;;0.71;69.85;98914.03;6116021;23;20178;-85
2022/12/11 11:01:21;;;;;;;20.20;10.20;;;;;;;0.73;69.84;98908.78;6123490;23;20174;-85
2022/12/11 11:03:56;;;;;;;18.88;10.02;;;;;;;0.77;69.96;98916.38;6116103;23;20172;-86
2022/12/11 11:06:23;;;;;;;19.20;9.57;;;;;;;0.74;69.55;98911.31;6111822;23;20837;-85
2022/12/11 11:08:54;;;;;;;21.88;10.25;;;;;;;0.73;69.89;98916.53;6113499;23;20178;-86
2022/12/11 11:11:35;;;;;;;15.60;8.93;;;;;;;0.79;69.94;98909.44;6087239;23;20208;-87
2022/12/11 11:14:19;;;;;;;22.90;12.10;;;;;;;0.85;69.80;98906.63;6111709;23;20259;-86
2022/12/11 11:16:47;;;;;;;23.83;11.88;;;;;;;0.93;69.73;98905.50;6086918;23;20525;-86
2022/12/11 11:19:32;;;;;;;21.35;12.00;;;;;;;0.90;68.96;98903.88;6087759;23;20182;-85
2022/12/11 11:22:17;;;;;;;25.58;11.68;;;;;;;0.84;69.61;98902.34;6090684;23;20174;-85
2022/12/11 11:24:55;;;;;;;25.75;12.25;;;;;;;0.82;69.63;98898.13;6090766;23;20198;-85
2022/12/11 11:27:35;;;;;;;27.40;14.45;;;;;;;0.82;69.70;98905.88;6116978;23;20235;-86
2022/12/11 11:30:07;;;;;;;24.88;12.07;;;;;;;0.85;69.92;98898.03;6092400;23;20199;-85
2022/12/11 11:32:37;;;;;;;18.17;11.82;;;;;;;0.90;69.79;98893.53;6119818;23;20182;-85
2022/12/11 11:35:11;;;;;;;22.58;12.65;;;;;;;0.93;69.59;98890.00;6119445;23;20200;-86
2022/12/11 11:37:40;;;;;;;19.90;12.32;;;;;;;0.93;69.54;98890.00;6120740;23;20288;-85
2022/12/11 11:40:27;;;;;;;21.80;12.85;;;;;;;0.94;69.62;98892.50;6096003;23;20179;-84
2022/12/11 11:43:28;;;;;;;16.63;10.43;;;;;;;0.97;69.70;98878.63;6097588;23;20270;-83
2022/12/11 11:46:29;;;;;;;24.98;11.52;;;;;;;1.04;69.44;98891.28;6121584;23;20222;-85
2022/12/11 11:49:09;;;;;;;22.75;11.88;;;;;;;0.98;69.50;98878.59;6114856;23;20269;-85
2022/12/11 11:51:42;;;;;;;19.20;11.68;;;;;;;0.96;69.54;98889.88;6118348;23;20200;-85
2022/12/11 11:54:41;;;;;;;21.63;14.40;;;;;;;0.91;69.25;98886.63;6117768;23;20186;-86
2022/12/11 11:57:31;;;;;;;22.95;10.95;;;;;;;0.82;69.71;98888.63;6118879;23;20207;-85
2022/12/11 12:00:20;;;;;;;19.92;11.10;;;;;;;0.82;69.86;98887.78;6119321;23;20390;-85
2022/12/11 12:02:54;;;;;;;27.42;15.10;;;;;;;0.82;69.62;98886.03;6119883;23;20551;-86
2022/12/11 12:05:33;;;;;;;15.48;11.43;;;;;;;0.84;69.81;98886.00;6119934;23;20531;-86
2022/12/11 12:08:19;;;;;;;24.05;13.65;;;;;;;0.85;70.05;98885.94;6119897;23;20274;-86
2022/12/11 12:11:03;;;;;;;26.67;15.75;;;;;;;0.90;69.89;98885.78;6119037;23;20184;-85